sensor_id;sensor_type;location;lat;lon;timestamp;pressure;altitude;pressure_sealevel;temperature;humidity
81025;BME280;70500;50.292;6.666;2023-08-06T00:01:01;95341.09;;;19.54;60.10
81025;BME280;70500;50.292;6.666;2023-08-06T00:03:30;95348.25;;;19.57;59.91
81025;BME280;70500;50.292;6.666;2023-08-06T00:06:00;95350.25;;;19.56;59.65
81025;BME280;70500;50.292;6.666;2023-08-06T00:08:29;95352.50;;;19.52;60.02
81025;BME280;70500;50.292;6.666;2023-08-06T00:10:58;95352.25;;;19.56;60.16
81025;BME280;70500;50.292;6.666;2023-08-06T00:13:27;95356.25;;;19.49;59.65
81025;BME280;70500;50.292;6.666;2023-08-06T00:16:09;95348.53;;;19.53;60.34
81025;BME280;70500;50.292;6.666;2023-08-06T00:18:39;95344.34;;;19.47;60.63
81025;BME280;70500;50.292;6.666;2023-08-06T00:21:08;95344.78;;;19.56;60.52
81025;BME280;70500;50.292;6.666;2023-08-06T00:23:40;95339.41;;;19.45;60.36
81025;BME280;70500;50.292;6.666;2023-08-06T00:26:10;95336.13;;;19.52;60.50
81025;BME280;70500;50.292;6.666;2023-08-06T00:28:39;95340.09;;;19.51;60.19
81025;BME280;70500;50.292;6.666;2023-08-06T00:31:10;95336.63;;;19.51;60.42
81025;BME280;70500;50.292;6.666;2023-08-06T00:33:39;95329.00;;;19.44;60.39
81025;BME280;70500;50.292;6.666;2023-08-06T00:36:08;95322.31;;;19.45;60.15
81025;BME280;70500;50.292;6.666;2023-08-06T00:38:37;95322.47;;;19.52;60.45
81025;BME280;70500;50.292;6.666;2023-08-06T00:41:06;95321.03;;;19.46;60.71
81025;BME280;70500;50.292;6.666;2023-08-06T00:43:37;95318.28;;;19.51;60.27
81025;BME280;70500;50.292;6.666;2023-08-06T00:46:06;95313.78;;;19.54;60.36
81025;BME280;70500;50.292;6.666;2023-08-06T00:48:37;95314.84;;;19.45;60.38
81025;BME280;70500;50.292;6.666;2023-08-06T00:51:08;95319.78;;;19.47;60.39
81025;BME280;70500;50.292;6.666;2023-08-06T00:53:39;95319.03;;;19.46;60.66
81025;BME280;70500;50.292;6.666;2023-08-06T00:56:09;95309.16;;;19.43;60.26
81025;BME280;70500;50.292;6.666;2023-08-06T00:58:39;95314.31;;;19.47;60.20
81025;BME280;70500;50.292;6.666;2023-08-06T01:01:09;95301.16;;;19.51;60.49
81025;BME280;70500;50.292;6.666;2023-08-06T01:03:40;95300.19;;;19.48;60.50
81025;BME280;70500;50.292;6.666;2023-08-06T01:06:09;95309.44;;;19.40;60.39
81025;BME280;70500;50.292;6.666;2023-08-06T01:08:48;95304.22;;;19.42;59.99
81025;BME280;70500;50.292;6.666;2023-08-06T01:11:32;95301.94;;;19.46;60.76
81025;BME280;70500;50.292;6.666;2023-08-06T01:14:10;95296.72;;;19.48;60.61
81025;BME280;70500;50.292;6.666;2023-08-06T01:16:43;95290.50;;;19.47;60.83
81025;BME280;70500;50.292;6.666;2023-08-06T01:19:18;95295.16;;;19.58;60.44
81025;BME280;70500;50.292;6.666;2023-08-06T01:21:48;95297.69;;;19.50;60.84
81025;BME280;70500;50.292;6.666;2023-08-06T01:24:18;95292.00;;;19.48;60.70
81025;BME280;70500;50.292;6.666;2023-08-06T01:26:56;95289.50;;;19.50;60.70
81025;BME280;70500;50.292;6.666;2023-08-06T01:29:35;95293.72;;;19.51;60.92
81025;BME280;70500;50.292;6.666;2023-08-06T01:32:10;95284.31;;;19.47;60.98
81025;BME280;70500;50.292;6.666;2023-08-06T01:34:43;95293.75;;;19.46;60.59
81025;BME280;70500;50.292;6.666;2023-08-06T01:37:15;95290.06;;;19.43;60.82
81025;BME280;70500;50.292;6.666;2023-08-06T01:39:44;95289.56;;;19.45;60.95
81025;BME280;70500;50.292;6.666;2023-08-06T01:42:13;95294.44;;;19.52;60.61
81025;BME280;70500;50.292;6.666;2023-08-06T01:44:43;95287.50;;;19.51;60.52
81025;BME280;70500;50.292;6.666;2023-08-06T01:47:12;95283.28;;;19.50;60.54
81025;BME280;70500;50.292;6.666;2023-08-06T01:49:41;95272.66;;;19.46;60.97
81025;BME280;70500;50.292;6.666;2023-08-06T01:52:10;95280.09;;;19.46;60.73
81025;BME280;70500;50.292;6.666;2023-08-06T01:54:41;95281.63;;;19.41;60.91
81025;BME280;70500;50.292;6.666;2023-08-06T01:57:11;95281.56;;;19.47;60.71
81025;BME280;70500;50.292;6.666;2023-08-06T01:59:40;95278.84;;;19.47;60.91
81025;BME280;70500;50.292;6.666;2023-08-06T02:02:09;95267.06;;;19.33;60.28
81025;BME280;70500;50.292;6.666;2023-08-06T02:04:38;95276.47;;;19.32;61.13
81025;BME280;70500;50.292;6.666;2023-08-06T02:07:08;95266.44;;;19.46;61.11
81025;BME280;70500;50.292;6.666;2023-08-06T02:09:37;95263.22;;;19.47;61.24
81025;BME280;70500;50.292;6.666;2023-08-06T02:12:09;95259.56;;;19.39;61.05
81025;BME280;70500;50.292;6.666;2023-08-06T02:14:38;95259.56;;;19.39;61.03
81025;BME280;70500;50.292;6.666;2023-08-06T02:17:07;95252.63;;;19.38;61.50
81025;BME280;70500;50.292;6.666;2023-08-06T02:19:37;95253.13;;;19.37;61.30
81025;BME280;70500;50.292;6.666;2023-08-06T02:22:06;95250.44;;;19.31;60.94
81025;BME280;70500;50.292;6.666;2023-08-06T02:24:35;95247.69;;;19.37;60.95
81025;BME280;70500;50.292;6.666;2023-08-06T02:27:04;95249.19;;;19.32;61.04
81025;BME280;70500;50.292;6.666;2023-08-06T02:29:35;95252.13;;;19.40;61.12
81025;BME280;70500;50.292;6.666;2023-08-06T02:32:05;95241.00;;;19.32;60.83
81025;BME280;70500;50.292;6.666;2023-08-06T02:34:35;95235.06;;;19.34;61.24
81025;BME280;70500;50.292;6.666;2023-08-06T02:37:05;95238.53;;;19.34;60.91
81025;BME280;70500;50.292;6.666;2023-08-06T02:39:34;95230.09;;;19.32;61.30
81025;BME280;70500;50.292;6.666;2023-08-06T02:42:07;95235.31;;;19.30;61.06
81025;BME280;70500;50.292;6.666;2023-08-06T02:44:38;95225.16;;;19.31;61.01
81025;BME280;70500;50.292;6.666;2023-08-06T02:47:07;95228.63;;;19.31;61.26
81025;BME280;70500;50.292;6.666;2023-08-06T02:49:36;95228.38;;;19.29;60.92
81025;BME280;70500;50.292;6.666;2023-08-06T02:52:06;95225.41;;;19.27;61.19
81025;BME280;70500;50.292;6.666;2023-08-06T02:54:36;95235.31;;;19.30;61.18
81025;BME280;70500;50.292;6.666;2023-08-06T02:57:06;95225.47;;;19.21;61.53
81025;BME280;70500;50.292;6.666;2023-08-06T02:59:37;95231.63;;;19.28;61.09
81025;BME280;70500;50.292;6.666;2023-08-06T03:02:11;95227.41;;;19.27;61.26
81025;BME280;70500;50.292;6.666;2023-08-06T03:05:03;95225.66;;;19.29;61.45
81025;BME280;70500;50.292;6.666;2023-08-06T03:07:37;95212.75;;;19.30;61.55
81025;BME280;70500;50.292;6.666;2023-08-06T03:10:14;95218.22;;;19.30;61.62
81025;BME280;70500;50.292;6.666;2023-08-06T03:12:44;95216.22;;;19.30;61.50
81025;BME280;70500;50.292;6.666;2023-08-06T03:15:15;95216.50;;;19.27;61.29
81025;BME280;70500;50.292;6.666;2023-08-06T03:17:45;95214.47;;;19.33;61.49
81025;BME280;70500;50.292;6.666;2023-08-06T03:20:17;95217.53;;;19.23;61.71
81025;BME280;70500;50.292;6.666;2023-08-06T03:22:46;95206.06;;;19.31;61.51
81025;BME280;70500;50.292;6.666;2023-08-06T03:25:16;95206.78;;;19.31;61.57
81025;BME280;70500;50.292;6.666;2023-08-06T03:27:48;95202.13;;;19.26;61.58
81025;BME280;70500;50.292;6.666;2023-08-06T03:30:20;95200.34;;;19.29;61.71
81025;BME280;70500;50.292;6.666;2023-08-06T03:32:53;95202.34;;;19.28;61.63
81025;BME280;70500;50.292;6.666;2023-08-06T03:35:22;95201.66;;;19.22;62.00
81025;BME280;70500;50.292;6.666;2023-08-06T03:37:52;95199.41;;;19.26;61.88
81025;BME280;70500;50.292;6.666;2023-08-06T03:40:21;95203.66;;;19.21;61.95
81025;BME280;70500;50.292;6.666;2023-08-06T03:42:51;95197.41;;;19.27;61.96
81025;BME280;70500;50.292;6.666;2023-08-06T03:45:21;95184.47;;;19.33;61.76
81025;BME280;70500;50.292;6.666;2023-08-06T03:47:51;95186.72;;;19.29;61.79
81025;BME280;70500;50.292;6.666;2023-08-06T03:50:20;95188.72;;;19.28;61.65
81025;BME280;70500;50.292;6.666;2023-08-06T03:52:49;95199.69;;;19.22;61.68
81025;BME280;70500;50.292;6.666;2023-08-06T03:55:18;95187.19;;;19.33;62.03
81025;BME280;70500;50.292;6.666;2023-08-06T03:57:47;95189.69;;;19.31;61.95
81025;BME280;70500;50.292;6.666;2023-08-06T04:00:17;95191.91;;;19.32;61.85
81025;BME280;70500;50.292;6.666;2023-08-06T04:02:53;95192.13;;;19.34;61.76
81025;BME280;70500;50.292;6.666;2023-08-06T04:05:22;95197.34;;;19.32;61.67
81025;BME280;70500;50.292;6.666;2023-08-06T04:07:51;95199.84;;;19.30;61.84
81025;BME280;70500;50.292;6.666;2023-08-06T04:10:21;95199.59;;;19.34;61.72
81025;BME280;70500;50.292;6.666;2023-08-06T04:12:50;95205.53;;;19.32;61.72
81025;BME280;70500;50.292;6.666;2023-08-06T04:15:19;95208.03;;;19.30;61.99
81025;BME280;70500;50.292;6.666;2023-08-06T04:17:48;95195.88;;;19.31;61.57
81025;BME280;70500;50.292;6.666;2023-08-06T04:20:18;95201.06;;;19.35;61.87
81025;BME280;70500;50.292;6.666;2023-08-06T04:22:47;95192.91;;;19.29;61.63
81025;BME280;70500;50.292;6.666;2023-08-06T04:25:17;95202.53;;;19.36;61.66
81025;BME280;70500;50.292;6.666;2023-08-06T04:27:48;95201.34;;;19.31;61.74
81025;BME280;70500;50.292;6.666;2023-08-06T04:30:17;95204.31;;;19.33;61.71
81025;BME280;70500;50.292;6.666;2023-08-06T04:32:47;95199.81;;;19.36;61.59
81025;BME280;70500;50.292;6.666;2023-08-06T04:35:16;95202.34;;;19.28;61.62
81025;BME280;70500;50.292;6.666;2023-08-06T04:37:47;95206.31;;;19.27;61.66
81025;BME280;70500;50.292;6.666;2023-08-06T04:40:16;95204.56;;;19.30;61.64
81025;BME280;70500;50.292;6.666;2023-08-06T04:42:45;95207.81;;;19.28;62.22
81025;BME280;70500;50.292;6.666;2023-08-06T04:45:15;95205.31;;;19.30;61.89
81025;BME280;70500;50.292;6.666;2023-08-06T04:47:44;95201.56;;;19.33;62.03
81025;BME280;70500;50.292;6.666;2023-08-06T04:50:13;95195.38;;;19.33;61.94
81025;BME280;70500;50.292;6.666;2023-08-06T04:52:42;95200.09;;;19.32;61.81
81025;BME280;70500;50.292;6.666;2023-08-06T04:55:12;95215.97;;;19.34;61.89
81025;BME280;70500;50.292;6.666;2023-08-06T04:57:42;95215.22;;;19.33;62.14
81025;BME280;70500;50.292;6.666;2023-08-06T05:00:11;95208.25;;;19.38;61.68
81025;BME280;70500;50.292;6.666;2023-08-06T05:02:40;95220.91;;;19.35;62.11
81025;BME280;70500;50.292;6.666;2023-08-06T05:05:09;95222.38;;;19.36;61.99
81025;BME280;70500;50.292;6.666;2023-08-06T05:07:38;95225.38;;;19.33;62.21
81025;BME280;70500;50.292;6.666;2023-08-06T05:10:08;95230.84;;;19.33;61.85
81025;BME280;70500;50.292;6.666;2023-08-06T05:12:38;95224.41;;;19.30;62.04
81025;BME280;70500;50.292;6.666;2023-08-06T05:15:08;95233.06;;;19.34;62.02
81025;BME280;70500;50.292;6.666;2023-08-06T05:17:37;95234.81;;;19.32;61.84
81025;BME280;70500;50.292;6.666;2023-08-06T05:20:07;95228.84;;;19.33;62.06
81025;BME280;70500;50.292;6.666;2023-08-06T05:22:36;95235.06;;;19.34;61.90
81025;BME280;70500;50.292;6.666;2023-08-06T05:25:06;95234.03;;;19.37;61.83
81025;BME280;70500;50.292;6.666;2023-08-06T05:27:35;95238.50;;;19.40;61.87
81025;BME280;70500;50.292;6.666;2023-08-06T05:30:07;95232.28;;;19.39;61.89
81025;BME280;70500;50.292;6.666;2023-08-06T05:32:36;95239.50;;;19.37;62.13
81025;BME280;70500;50.292;6.666;2023-08-06T05:35:06;95238.53;;;19.34;62.16
81025;BME280;70500;50.292;6.666;2023-08-06T05:37:35;95240.47;;;19.39;62.02
81025;BME280;70500;50.292;6.666;2023-08-06T05:40:05;95241.47;;;19.36;62.34
81025;BME280;70500;50.292;6.666;2023-08-06T05:42:34;95241.72;;;19.38;62.04
81025;BME280;70500;50.292;6.666;2023-08-06T05:45:06;95240.97;;;19.38;61.96
81025;BME280;70500;50.292;6.666;2023-08-06T05:47:38;95237.97;;;19.41;61.90
81025;BME280;70500;50.292;6.666;2023-08-06T05:50:07;95238.00;;;19.36;62.10
81025;BME280;70500;50.292;6.666;2023-08-06T05:52:37;95241.72;;;19.38;62.36
81025;BME280;70500;50.292;6.666;2023-08-06T05:55:07;95236.78;;;19.37;62.16
81025;BME280;70500;50.292;6.666;2023-08-06T05:57:36;95235.53;;;19.38;62.10
81025;BME280;70500;50.292;6.666;2023-08-06T06:00:08;95234.06;;;19.31;62.32
81025;BME280;70500;50.292;6.666;2023-08-06T06:02:40;95238.06;;;19.30;62.10
81025;BME280;70500;50.292;6.666;2023-08-06T06:05:09;95246.66;;;19.40;61.83
81025;BME280;70500;50.292;6.666;2023-08-06T06:07:38;95232.06;;;19.37;62.13
81025;BME280;70500;50.292;6.666;2023-08-06T06:10:09;95235.28;;;19.36;62.18
81025;BME280;70500;50.292;6.666;2023-08-06T06:12:38;95240.47;;;19.39;61.97
81025;BME280;70500;50.292;6.666;2023-08-06T06:15:09;95237.28;;;19.35;61.82
81025;BME280;70500;50.292;6.666;2023-08-06T06:17:38;95239.78;;;19.33;62.02
81025;BME280;70500;50.292;6.666;2023-08-06T06:20:08;95245.69;;;19.37;62.02
81025;BME280;70500;50.292;6.666;2023-08-06T06:22:37;95243.47;;;19.36;61.95
81025;BME280;70500;50.292;6.666;2023-08-06T06:25:07;95251.38;;;19.39;61.56
81025;BME280;70500;50.292;6.666;2023-08-06T06:27:37;95257.13;;;19.36;61.96
81025;BME280;70500;50.292;6.666;2023-08-06T06:30:09;95261.31;;;19.37;61.83
81025;BME280;70500;50.292;6.666;2023-08-06T06:32:39;95259.34;;;19.37;61.79
81025;BME280;70500;50.292;6.666;2023-08-06T06:35:10;95261.31;;;19.37;61.71
81025;BME280;70500;50.292;6.666;2023-08-06T06:37:39;95265.31;;;19.36;62.14
81025;BME280;70500;50.292;6.666;2023-08-06T06:40:08;95272.25;;;19.37;61.96
81025;BME280;70500;50.292;6.666;2023-08-06T06:42:37;95268.00;;;19.41;61.65
81025;BME280;70500;50.292;6.666;2023-08-06T06:45:10;95277.94;;;19.39;61.92
81025;BME280;70500;50.292;6.666;2023-08-06T06:47:39;95268.25;;;19.38;61.89
81025;BME280;70500;50.292;6.666;2023-08-06T06:50:09;95264.06;;;19.37;61.89
81025;BME280;70500;50.292;6.666;2023-08-06T06:52:38;95268.25;;;19.38;62.04
81025;BME280;70500;50.292;6.666;2023-08-06T06:55:08;95260.31;;;19.40;62.04
81025;BME280;70500;50.292;6.666;2023-08-06T06:57:37;95259.34;;;19.37;62.11
81025;BME280;70500;50.292;6.666;2023-08-06T07:00:07;95270.53;;;19.34;62.01
81025;BME280;70500;50.292;6.666;2023-08-06T07:02:37;95272.75;;;19.35;62.42
81025;BME280;70500;50.292;6.666;2023-08-06T07:05:07;95272.28;;;19.31;62.37
81025;BME280;70500;50.292;6.666;2023-08-06T07:07:37;95274.47;;;19.38;62.21
81025;BME280;70500;50.292;6.666;2023-08-06T07:10:07;95281.91;;;19.38;62.26
81025;BME280;70500;50.292;6.666;2023-08-06T07:12:36;95285.38;;;19.38;62.20
81025;BME280;70500;50.292;6.666;2023-08-06T07:15:06;95288.88;;;19.33;62.11
81025;BME280;70500;50.292;6.666;2023-08-06T07:17:37;95291.09;;;19.35;62.13
81025;BME280;70500;50.292;6.666;2023-08-06T07:20:07;95296.56;;;19.35;62.28
81025;BME280;70500;50.292;6.666;2023-08-06T07:22:36;95302.53;;;19.33;62.43
81025;BME280;70500;50.292;6.666;2023-08-06T07:25:06;95301.78;;;19.33;62.19
81025;BME280;70500;50.292;6.666;2023-08-06T07:27:35;95299.78;;;19.33;62.46
81025;BME280;70500;50.292;6.666;2023-08-06T07:30:06;95307.97;;;19.33;62.42
81025;BME280;70500;50.292;6.666;2023-08-06T07:32:36;95306.03;;;19.28;62.42
81025;BME280;70500;50.292;6.666;2023-08-06T07:35:06;95314.69;;;19.32;62.72
81025;BME280;70500;50.292;6.666;2023-08-06T07:37:37;95319.13;;;19.35;62.57
81025;BME280;70500;50.292;6.666;2023-08-06T07:40:07;95333.50;;;19.36;62.23
81025;BME280;70500;50.292;6.666;2023-08-06T07:42:36;95334.03;;;19.34;62.54
81025;BME280;70500;50.292;6.666;2023-08-06T07:45:07;95331.44;;;19.47;62.31
81025;BME280;70500;50.292;6.666;2023-08-06T07:47:38;95332.69;;;19.46;62.07
81025;BME280;70500;50.292;6.666;2023-08-06T07:50:07;95335.41;;;19.46;62.22
81025;BME280;70500;50.292;6.666;2023-08-06T07:52:36;95321.78;;;19.46;62.25
81025;BME280;70500;50.292;6.666;2023-08-06T07:55:06;95327.75;;;19.45;62.26
81025;BME280;70500;50.292;6.666;2023-08-06T07:57:35;95334.88;;;19.53;61.99
81025;BME280;70500;50.292;6.666;2023-08-06T08:00:06;95330.66;;;19.52;62.05
81025;BME280;70500;50.292;6.666;2023-08-06T08:02:41;95335.94;;;19.45;62.39
81025;BME280;70500;50.292;6.666;2023-08-06T08:05:11;95336.91;;;19.47;62.02
81025;BME280;70500;50.292;6.666;2023-08-06T08:07:40;95333.72;;;19.43;61.79
81025;BME280;70500;50.292;6.666;2023-08-06T08:10:09;95345.38;;;19.44;61.72
81025;BME280;70500;50.292;6.666;2023-08-06T08:12:38;95348.06;;;19.49;60.93
81025;BME280;70500;50.292;6.666;2023-08-06T08:15:08;95368.66;;;19.50;60.83
81025;BME280;70500;50.292;6.666;2023-08-06T08:17:37;95370.69;;;19.44;60.73
81025;BME280;70500;50.292;6.666;2023-08-06T08:20:09;95376.88;;;19.45;60.35
81025;BME280;70500;50.292;6.666;2023-08-06T08:22:38;95368.22;;;19.41;60.58
81025;BME280;70500;50.292;6.666;2023-08-06T08:25:07;95378.63;;;19.42;60.22
81025;BME280;70500;50.292;6.666;2023-08-06T08:27:36;95385.56;;;19.43;59.96
81025;BME280;70500;50.292;6.666;2023-08-06T08:30:06;95394.25;;;19.42;60.27
81025;BME280;70500;50.292;6.666;2023-08-06T08:32:35;95398.25;;;19.41;59.68
81025;BME280;70500;50.292;6.666;2023-08-06T08:35:05;95400.50;;;19.31;60.28
81025;BME280;70500;50.292;6.666;2023-08-06T08:37:35;95403.69;;;19.41;59.82
81025;BME280;70500;50.292;6.666;2023-08-06T08:40:06;95402.44;;;19.42;59.73
81025;BME280;70500;50.292;6.666;2023-08-06T08:42:36;95410.63;;;19.42;59.73
81025;BME280;70500;50.292;6.666;2023-08-06T08:45:10;95412.38;;;19.39;59.63
81025;BME280;70500;50.292;6.666;2023-08-06T08:47:41;95409.91;;;19.41;59.93
81025;BME280;70500;50.292;6.666;2023-08-06T08:50:11;95409.09;;;19.46;60.06
81025;BME280;70500;50.292;6.666;2023-08-06T08:52:43;95413.59;;;19.44;59.83
81025;BME280;70500;50.292;6.666;2023-08-06T08:55:15;95418.56;;;19.45;60.20
81025;BME280;70500;50.292;6.666;2023-08-06T08:57:44;95425.53;;;19.41;61.00
81025;BME280;70500;50.292;6.666;2023-08-06T09:00:13;95427.25;;;19.44;60.80
81025;BME280;70500;50.292;6.666;2023-08-06T09:02:44;95435.91;;;19.48;61.12
81025;BME280;70500;50.292;6.666;2023-08-06T09:05:15;95434.19;;;19.45;61.02
81025;BME280;70500;50.292;6.666;2023-08-06T09:07:48;95445.63;;;19.38;61.13
81025;BME280;70500;50.292;6.666;2023-08-06T09:10:20;95454.75;;;19.46;61.54
81025;BME280;70500;50.292;6.666;2023-08-06T09:12:52;95455.28;;;19.44;61.39
81025;BME280;70500;50.292;6.666;2023-08-06T09:15:24;95461.25;;;19.37;61.67
81025;BME280;70500;50.292;6.666;2023-08-06T09:17:54;95469.47;;;19.32;61.21
81025;BME280;70500;50.292;6.666;2023-08-06T09:20:23;95470.75;;;19.25;61.26
81025;BME280;70500;50.292;6.666;2023-08-06T09:22:54;95471.47;;;19.26;60.63
81025;BME280;70500;50.292;6.666;2023-08-06T09:25:24;95481.41;;;19.23;60.39
81025;BME280;70500;50.292;6.666;2023-08-06T09:27:54;95477.19;;;19.22;60.43
81025;BME280;70500;50.292;6.666;2023-08-06T09:30:31;95496.78;;;19.15;60.43
81025;BME280;70500;50.292;6.666;2023-08-06T09:33:01;95509.66;;;19.14;60.44
81025;BME280;70500;50.292;6.666;2023-08-06T09:35:31;95509.94;;;19.22;61.68
81025;BME280;70500;50.292;6.666;2023-08-06T09:38:09;95503.22;;;19.17;61.18
81025;BME280;70500;50.292;6.666;2023-08-06T09:40:40;95499.25;;;19.13;61.26
81025;BME280;70500;50.292;6.666;2023-08-06T09:43:11;95508.91;;;19.14;60.76
81025;BME280;70500;50.292;6.666;2023-08-06T09:45:40;95506.69;;;19.12;60.68
81025;BME280;70500;50.292;6.666;2023-08-06T09:48:11;95517.84;;;19.09;60.08
81025;BME280;70500;50.292;6.666;2023-08-06T09:50:40;95513.88;;;19.15;60.71
81025;BME280;70500;50.292;6.666;2023-08-06T09:53:12;95512.88;;;19.18;60.72
81025;BME280;70500;50.292;6.666;2023-08-06T09:55:42;95520.31;;;19.18;60.71
81025;BME280;70500;50.292;6.666;2023-08-06T09:58:12;95532.00;;;19.13;60.33
81025;BME280;70500;50.292;6.666;2023-08-06T10:00:42;95525.31;;;19.03;60.49
81025;BME280;70500;50.292;6.666;2023-08-06T10:03:12;95533.25;;;19.06;59.87
81025;BME280;70500;50.292;6.666;2023-08-06T10:05:44;95538.72;;;19.01;59.21
81025;BME280;70500;50.292;6.666;2023-08-06T10:08:17;95546.16;;;19.00;59.18
81025;BME280;70500;50.292;6.666;2023-08-06T10:10:46;95549.38;;;18.99;59.28
81025;BME280;70500;50.292;6.666;2023-08-06T10:13:19;95547.88;;;19.03;58.77
81025;BME280;70500;50.292;6.666;2023-08-06T10:15:51;95553.09;;;19.01;58.77
81025;BME280;70500;50.292;6.666;2023-08-06T10:18:22;95554.59;;;18.97;59.04
81025;BME280;70500;50.292;6.666;2023-08-06T10:20:52;95569.22;;;18.99;58.73
81025;BME280;70500;50.292;6.666;2023-08-06T10:23:33;95570.19;;;18.96;58.32
81025;BME280;70500;50.292;6.666;2023-08-06T10:26:03;95567.97;;;18.95;58.77
81025;BME280;70500;50.292;6.666;2023-08-06T10:28:37;95578.13;;;18.94;58.69
81025;BME280;70500;50.292;6.666;2023-08-06T10:31:06;95579.88;;;18.92;58.37
81025;BME280;70500;50.292;6.666;2023-08-06T10:33:40;95578.63;;;18.93;58.13
81025;BME280;70500;50.292;6.666;2023-08-06T10:36:10;95583.81;;;18.90;58.36
81025;BME280;70500;50.292;6.666;2023-08-06T10:38:49;95585.31;;;18.97;58.73
81025;BME280;70500;50.292;6.666;2023-08-06T10:41:23;95591.53;;;19.03;60.06
81025;BME280;70500;50.292;6.666;2023-08-06T10:44:05;95584.56;;;19.13;60.62
81025;BME280;70500;50.292;6.666;2023-08-06T10:46:37;95591.25;;;19.18;60.19
81025;BME280;70500;50.292;6.666;2023-08-06T10:49:06;95595.72;;;19.15;60.42
81025;BME280;70500;50.292;6.666;2023-08-06T10:51:36;95606.41;;;19.19;60.57
81025;BME280;70500;50.292;6.666;2023-08-06T10:54:07;95610.38;;;19.23;60.00
81025;BME280;70500;50.292;6.666;2023-08-06T10:56:40;95619.03;;;19.28;59.57
81025;BME280;70500;50.292;6.666;2023-08-06T10:59:09;95605.38;;;19.33;59.44
81025;BME280;70500;50.292;6.666;2023-08-06T11:01:39;95615.81;;;19.40;59.48
81025;BME280;70500;50.292;6.666;2023-08-06T11:04:08;95613.81;;;19.35;58.98
81025;BME280;70500;50.292;6.666;2023-08-06T11:06:43;95607.13;;;19.42;58.87
81025;BME280;70500;50.292;6.666;2023-08-06T11:09:14;95621.75;;;19.44;58.54
81025;BME280;70500;50.292;6.666;2023-08-06T11:11:44;95621.97;;;19.52;58.45
81025;BME280;70500;50.292;6.666;2023-08-06T11:14:15;95625.44;;;19.52;58.57
81025;BME280;70500;50.292;6.666;2023-08-06T11:16:44;95625.19;;;19.56;58.35
81025;BME280;70500;50.292;6.666;2023-08-06T11:19:13;95624.19;;;19.59;57.89
81025;BME280;70500;50.292;6.666;2023-08-06T11:21:44;95622.47;;;19.62;57.99
81025;BME280;70500;50.292;6.666;2023-08-06T11:24:17;95627.88;;;19.67;57.55
81025;BME280;70500;50.292;6.666;2023-08-06T11:26:46;95633.63;;;19.64;57.88
81025;BME280;70500;50.292;6.666;2023-08-06T11:29:15;95637.31;;;19.66;57.63
81025;BME280;70500;50.292;6.666;2023-08-06T11:31:44;95639.56;;;19.68;57.30
81025;BME280;70500;50.292;6.666;2023-08-06T11:34:15;95634.34;;;19.70;57.65
81025;BME280;70500;50.292;6.666;2023-08-06T11:36:44;95642.53;;;19.75;57.22
81025;BME280;70500;50.292;6.666;2023-08-06T11:39:15;95641.53;;;19.73;57.25
81025;BME280;70500;50.292;6.666;2023-08-06T11:41:45;95640.53;;;19.76;57.42
81025;BME280;70500;50.292;6.666;2023-08-06T11:44:19;95651.16;;;19.85;57.27
81025;BME280;70500;50.292;6.666;2023-08-06T11:46:51;95648.69;;;19.87;56.91
81025;BME280;70500;50.292;6.666;2023-08-06T11:49:37;95660.84;;;19.86;57.15
81025;BME280;70500;50.292;6.666;2023-08-06T11:52:12;95655.66;;;19.82;57.21
81025;BME280;70500;50.292;6.666;2023-08-06T11:54:43;95664.81;;;19.85;57.28
81025;BME280;70500;50.292;6.666;2023-08-06T11:57:13;95672.25;;;19.90;57.07
81025;BME280;70500;50.292;6.666;2023-08-06T11:59:45;95670.53;;;19.87;57.14
81025;BME280;70500;50.292;6.666;2023-08-06T12:02:15;95677.72;;;19.90;57.62
81025;BME280;70500;50.292;6.666;2023-08-06T12:05:02;95676.47;;;19.91;57.02
81025;BME280;70500;50.292;6.666;2023-08-06T12:07:36;95674.00;;;19.87;57.13
81025;BME280;70500;50.292;6.666;2023-08-06T12:10:08;95672.50;;;19.92;57.00
81025;BME280;70500;50.292;6.666;2023-08-06T12:12:37;95677.22;;;19.91;56.83
81025;BME280;70500;50.292;6.666;2023-08-06T12:15:11;95682.94;;;19.93;56.83
81025;BME280;70500;50.292;6.666;2023-08-06T12:17:40;95678.44;;;20.02;56.50
81025;BME280;70500;50.292;6.666;2023-08-06T12:20:10;95686.16;;;20.03;56.72
81025;BME280;70500;50.292;6.666;2023-08-06T12:22:39;95681.41;;;20.04;56.44
81025;BME280;70500;50.292;6.666;2023-08-06T12:25:11;95682.16;;;20.04;56.30
81025;BME280;70500;50.292;6.666;2023-08-06T12:27:41;95684.88;;;20.04;56.30
81025;BME280;70500;50.292;6.666;2023-08-06T12:30:12;95688.09;;;20.08;56.32
81025;BME280;70500;50.292;6.666;2023-08-06T12:32:41;95692.63;;;19.95;56.69
81025;BME280;70500;50.292;6.666;2023-08-06T12:35:10;95695.06;;;20.04;56.68
81025;BME280;70500;50.292;6.666;2023-08-06T12:37:39;95703.50;;;20.06;56.35
81025;BME280;70500;50.292;6.666;2023-08-06T12:40:11;95697.28;;;20.05;56.42
81025;BME280;70500;50.292;6.666;2023-08-06T12:42:43;95702.00;;;20.05;56.58
81025;BME280;70500;50.292;6.666;2023-08-06T12:45:12;95702.28;;;20.01;56.35
81025;BME280;70500;50.292;6.666;2023-08-06T12:47:42;95704.03;;;19.93;56.75
81025;BME280;70500;50.292;6.666;2023-08-06T12:50:11;95696.59;;;19.93;56.52
81025;BME280;70500;50.292;6.666;2023-08-06T12:52:40;95707.03;;;19.95;56.77
81025;BME280;70500;50.292;6.666;2023-08-06T12:55:11;95708.50;;;20.02;56.51
81025;BME280;70500;50.292;6.666;2023-08-06T12:57:40;95710.00;;;19.97;56.48
81025;BME280;70500;50.292;6.666;2023-08-06T13:00:26;95716.19;;;19.98;56.35
81025;BME280;70500;50.292;6.666;2023-08-06T13:02:55;95717.19;;;20.00;56.48
81025;BME280;70500;50.292;6.666;2023-08-06T13:05:26;95720.66;;;20.01;56.43
81025;BME280;70500;50.292;6.666;2023-08-06T13:07:55;95724.66;;;19.94;56.60
81025;BME280;70500;50.292;6.666;2023-08-06T13:10:26;95732.59;;;20.03;56.53
81025;BME280;70500;50.292;6.666;2023-08-06T13:12:56;95739.03;;;20.00;56.43
81025;BME280;70500;50.292;6.666;2023-08-06T13:15:26;95747.50;;;20.02;56.36
81025;BME280;70500;50.292;6.666;2023-08-06T13:17:55;95748.22;;;19.97;56.53